createdAt,value
2022-12-13T00:01:47.275Z,4.13
2022-12-13T00:04:15.841Z,4.30
2022-12-13T00:06:44.660Z,4.45
2022-12-13T00:09:16.865Z,5.07
2022-12-13T00:11:45.407Z,4.50
2022-12-13T00:14:15.121Z,4.60
2022-12-13T00:16:47.236Z,4.70
2022-12-13T00:19:16.169Z,5.03
2022-12-13T00:21:44.176Z,4.63
2022-12-13T00:24:12.537Z,4.47
2022-12-13T00:26:42.097Z,4.65
2022-12-13T00:29:11.754Z,5.10
2022-12-13T00:34:28.287Z,4.75
2022-12-13T00:36:56.462Z,5.20
2022-12-13T00:39:24.940Z,4.65
2022-12-13T00:41:54.408Z,4.70
2022-12-13T00:44:22.357Z,5.25
2022-12-13T00:46:51.970Z,5.70
2022-12-13T00:49:21.335Z,5.47
2022-12-13T00:51:50.083Z,4.85
2022-12-13T00:54:18.132Z,4.57
2022-12-13T00:56:45.895Z,4.80
2022-12-13T00:59:16.055Z,5.00
2022-12-13T01:01:44.230Z,4.80
2022-12-13T01:04:12.734Z,5.55
2022-12-13T01:06:42.714Z,5.10
2022-12-13T01:09:17.347Z,4.70
2022-12-13T01:11:46.362Z,5.05
2022-12-13T01:14:15.840Z,5.25
2022-12-13T01:16:48.128Z,5.00
2022-12-13T01:19:16.549Z,5.07
2022-12-13T01:21:44.559Z,4.65
2022-12-13T01:24:12.449Z,5.22
2022-12-13T01:26:40.311Z,5.18
2022-12-13T01:29:09.158Z,5.30
2022-12-13T01:31:42.103Z,5.35
2022-12-13T01:34:11.453Z,5.05
2022-12-13T01:36:40.854Z,6.10
2022-12-13T01:39:15.355Z,5.22
2022-12-13T01:41:45.248Z,5.68
2022-12-13T01:44:50.237Z,6.18
2022-12-13T01:47:25.066Z,6.55
2022-12-13T01:49:55.334Z,6.88
2022-12-13T01:52:23.735Z,6.00
2022-12-13T01:54:55.569Z,6.05
2022-12-13T01:57:33.773Z,6.32
2022-12-13T02:00:02.434Z,6.25
2022-12-13T02:02:37.347Z,5.85
2022-12-13T02:05:11.718Z,6.20
2022-12-13T02:07:43.349Z,6.72
2022-12-13T02:10:12.127Z,6.38
2022-12-13T02:12:41.991Z,5.72
2022-12-13T02:15:14.310Z,5.80
2022-12-13T02:18:12.089Z,5.78
2022-12-13T02:21:08.684Z,6.15
2022-12-13T02:24:22.979Z,6.27
2022-12-13T02:27:11.372Z,5.95
2022-12-13T02:30:15.886Z,6.05
2022-12-13T02:32:58.048Z,5.90
2022-12-13T02:35:32.668Z,5.90
2022-12-13T02:38:07.243Z,5.57
2022-12-13T02:40:40.533Z,6.57
2022-12-13T02:43:14.057Z,5.45
2022-12-13T02:45:48.439Z,5.68
2022-12-13T02:48:22.017Z,6.22
2022-12-13T02:50:51.763Z,6.25
2022-12-13T02:53:24.418Z,5.63
2022-12-13T02:55:52.919Z,5.93
2022-12-13T02:58:25.019Z,5.32
2022-12-13T03:00:59.383Z,6.15
2022-12-13T03:03:39.712Z,5.72
2022-12-13T03:06:34.332Z,5.75
2022-12-13T03:09:17.398Z,5.50
2022-12-13T03:12:17.797Z,5.13
2022-12-13T03:14:56.958Z,4.80
2022-12-13T03:17:28.476Z,4.78
2022-12-13T03:20:12.752Z,4.60
2022-12-13T03:22:53.406Z,4.32
2022-12-13T03:25:30.734Z,4.10
2022-12-13T03:28:02.558Z,4.43
2022-12-13T03:30:32.752Z,4.30
2022-12-13T03:33:01.779Z,4.30
2022-12-13T03:35:34.320Z,3.78
2022-12-13T03:38:12.700Z,4.38
2022-12-13T03:40:53.482Z,3.95
2022-12-13T03:43:23.126Z,3.50
2022-12-13T03:45:52.114Z,3.50
2022-12-13T03:48:22.620Z,3.63
2022-12-13T03:50:54.502Z,3.30
2022-12-13T03:53:32.458Z,3.97
2022-12-13T03:56:02.955Z,3.75
2022-12-13T03:58:34.998Z,3.78
2022-12-13T04:01:06.584Z,3.80
2022-12-13T04:03:35.204Z,3.70
2022-12-13T04:06:06.297Z,3.40
2022-12-13T04:08:35.129Z,4.25
2022-12-13T04:11:21.798Z,3.45
2022-12-13T04:13:50.148Z,3.55
2022-12-13T04:16:18.468Z,3.47
2022-12-13T04:18:46.729Z,4.07
2022-12-13T04:21:16.702Z,3.90
2022-12-13T04:23:45.120Z,3.65
2022-12-13T04:26:13.726Z,3.60
2022-12-13T04:28:41.935Z,3.78
2022-12-13T04:31:10.400Z,3.45
2022-12-13T04:33:38.638Z,3.60
2022-12-13T04:36:07.639Z,4.28
2022-12-13T04:38:37.381Z,3.83
2022-12-13T04:41:07.878Z,3.38
2022-12-13T04:43:36.029Z,3.20
2022-12-13T04:46:04.364Z,3.40
2022-12-13T04:48:33.734Z,3.60
2022-12-13T04:51:02.883Z,3.55
2022-12-13T04:53:31.594Z,3.17
2022-12-13T04:56:03.847Z,3.10
2022-12-13T04:58:32.056Z,3.22
2022-12-13T05:01:00.348Z,3.30
2022-12-13T05:03:30.096Z,3.10
2022-12-13T05:05:58.198Z,8.73
2022-12-13T05:08:26.466Z,5.60
2022-12-13T05:10:55.879Z,9.10
2022-12-13T05:13:25.596Z,7.88
2022-12-13T05:15:57.647Z,6.10
2022-12-13T05:18:27.188Z,5.68
2022-12-13T05:20:56.156Z,4.72
2022-12-13T05:23:25.514Z,4.20
2022-12-13T05:25:53.965Z,3.53
2022-12-13T05:28:27.625Z,2.75
2022-12-13T05:31:23.039Z,3.10
2022-12-13T05:33:52.700Z,2.85
2022-12-13T05:36:22.911Z,2.97
2022-12-13T05:38:51.201Z,2.78
2022-12-13T05:41:23.729Z,3.45
2022-12-13T05:43:51.851Z,4.43
2022-12-13T05:46:21.704Z,4.05
2022-12-13T05:48:49.920Z,3.33
2022-12-13T05:51:18.451Z,3.70
2022-12-13T05:53:53.044Z,3.10
2022-12-13T05:56:22.467Z,3.00
2022-12-13T05:58:53.427Z,3.00
2022-12-13T06:01:24.831Z,3.15
2022-12-13T06:03:53.140Z,3.40
2022-12-13T06:06:21.661Z,3.60
2022-12-13T06:08:50.559Z,3.15
2022-12-13T06:11:32.138Z,3.20
2022-12-13T06:14:01.479Z,2.80
2022-12-13T06:16:32.261Z,2.97
2022-12-13T06:19:04.375Z,2.50
2022-12-13T06:21:41.694Z,2.53
2022-12-13T06:24:18.071Z,2.65
2022-12-13T06:26:46.630Z,2.78
2022-12-13T06:29:24.348Z,2.50
2022-12-13T06:32:02.259Z,2.53
2022-12-13T06:34:33.578Z,2.60
2022-12-13T06:37:03.162Z,2.55
2022-12-13T06:39:38.794Z,2.92
2022-12-13T06:42:08.750Z,2.67
2022-12-13T06:44:37.089Z,2.78
2022-12-13T06:47:10.680Z,2.63
2022-12-13T06:49:44.284Z,2.53
2022-12-13T06:52:14.890Z,2.63
2022-12-13T06:54:44.046Z,2.53
2022-12-13T06:57:13.323Z,2.53
2022-12-13T06:59:42.274Z,2.70
2022-12-13T07:02:24.676Z,3.03
2022-12-13T07:04:55.290Z,2.90
2022-12-13T07:07:24.924Z,3.28
2022-12-13T07:09:53.350Z,2.97
2022-12-13T07:12:21.742Z,3.45
2022-12-13T07:14:49.940Z,3.72
2022-12-13T07:17:32.448Z,3.47
2022-12-13T07:20:08.649Z,3.30
2022-12-13T07:22:44.868Z,3.20
2022-12-13T07:25:27.179Z,3.53
2022-12-13T07:28:02.672Z,3.55
2022-12-13T07:30:33.661Z,3.60
2022-12-13T07:33:04.332Z,3.10
2022-12-13T07:35:37.662Z,3.35
2022-12-13T07:38:07.327Z,3.90
2022-12-13T07:40:35.747Z,3.53
2022-12-13T07:43:04.817Z,3.58
2022-12-13T07:45:33.240Z,4.38
2022-12-13T07:48:06.940Z,4.18
2022-12-13T07:50:37.250Z,4.18
2022-12-13T07:53:07.393Z,3.65
2022-12-13T07:55:36.210Z,3.20
2022-12-13T07:58:05.808Z,3.55
2022-12-13T08:00:34.325Z,3.50
2022-12-13T08:03:02.596Z,3.03
2022-12-13T08:05:38.765Z,3.13
2022-12-13T08:10:37.102Z,3.10
2022-12-13T08:13:05.951Z,2.78
2022-12-13T08:15:34.110Z,3.55
2022-12-13T08:18:02.470Z,3.38
2022-12-13T08:20:32.156Z,2.92
2022-12-13T08:23:02.261Z,2.90
2022-12-13T08:25:32.011Z,2.83
2022-12-13T08:28:02.210Z,3.20
2022-12-13T08:30:32.680Z,3.28
2022-12-13T08:33:05.147Z,3.40
2022-12-13T08:35:35.416Z,2.88
2022-12-13T08:38:03.899Z,3.33
2022-12-13T08:40:32.240Z,3.67
2022-12-13T08:43:00.522Z,3.45
2022-12-13T08:45:28.711Z,3.55
2022-12-13T08:48:00.229Z,3.85
2022-12-13T08:50:29.660Z,3.40
2022-12-13T08:52:59.512Z,3.45
2022-12-13T08:55:32.257Z,3.20
2022-12-13T08:58:08.769Z,4.20
2022-12-13T09:00:38.532Z,4.32
2022-12-13T09:03:10.203Z,4.93
2022-12-13T09:05:39.481Z,4.13
2022-12-13T09:08:23.420Z,4.30
2022-12-13T09:11:00.353Z,3.50
2022-12-13T09:13:32.036Z,3.75
2022-12-13T09:16:04.328Z,3.22
2022-12-13T09:18:36.669Z,3.55
2022-12-13T09:21:11.158Z,2.85
2022-12-13T09:23:46.315Z,3.80
2022-12-13T09:26:16.592Z,4.13
2022-12-13T09:28:45.240Z,3.83
2022-12-13T09:31:15.591Z,3.20
2022-12-13T09:33:44.640Z,2.90
2022-12-13T09:36:18.364Z,2.13
2022-12-13T09:38:53.140Z,2.30
2022-12-13T09:41:28.760Z,2.20
2022-12-13T09:44:02.440Z,2.00
2022-12-13T09:46:34.812Z,1.98
2022-12-13T09:49:22.991Z,2.17
2022-12-13T09:52:11.109Z,1.92
2022-12-13T09:54:48.739Z,2.10
2022-12-13T09:57:32.370Z,2.58
2022-12-13T10:00:04.902Z,2.20
2022-12-13T10:02:43.764Z,2.20
2022-12-13T10:05:33.755Z,2.75
2022-12-13T10:08:08.517Z,2.13
2022-12-13T10:10:38.569Z,2.65
2022-12-13T10:13:17.020Z,2.72
2022-12-13T10:15:52.140Z,2.10
2022-12-13T10:18:31.681Z,2.33
2022-12-13T10:21:01.001Z,2.25
2022-12-13T10:23:52.398Z,2.63
2022-12-13T10:26:24.167Z,2.50
2022-12-13T10:29:03.410Z,11.50
2022-12-13T10:31:38.998Z,4.20
2022-12-13T10:34:16.450Z,3.93
2022-12-13T10:36:45.650Z,4.03
2022-12-13T10:39:19.080Z,2.60
2022-12-13T10:41:48.727Z,2.17
2022-12-13T10:44:22.990Z,1.75
2022-12-13T10:47:07.320Z,1.77
2022-12-13T10:49:40.835Z,1.77
2022-12-13T10:52:30.975Z,1.52
2022-12-13T10:55:03.224Z,1.50
2022-12-13T10:57:33.679Z,1.70
2022-12-13T11:00:01.869Z,2.00
2022-12-13T11:02:33.925Z,1.70
2022-12-13T11:05:24.692Z,1.50
2022-12-13T11:07:53.009Z,1.73
2022-12-13T11:10:27.395Z,1.80
2022-12-13T11:13:02.689Z,1.80
2022-12-13T11:15:32.449Z,2.00
2022-12-13T11:18:04.791Z,2.58
2022-12-13T11:20:36.103Z,2.20
2022-12-13T11:23:07.778Z,2.38
2022-12-13T11:25:41.010Z,2.50
2022-12-13T11:28:28.190Z,2.58
2022-12-13T11:33:48.378Z,2.40
2022-12-13T11:36:26.979Z,2.30
2022-12-13T11:39:07.249Z,3.08
2022-12-13T11:41:39.659Z,2.95
2022-12-13T11:44:15.481Z,2.47
2022-12-13T11:46:46.800Z,2.10
2022-12-13T11:49:20.169Z,2.47
2022-12-13T11:51:54.050Z,2.70
2022-12-13T11:54:29.263Z,2.97
2022-12-13T11:57:00.262Z,1.90
2022-12-13T11:59:40.680Z,3.22
2022-12-13T12:02:17.573Z,4.30
2022-12-13T12:04:52.447Z,3.22
2022-12-13T12:07:33.236Z,3.20
2022-12-13T12:10:16.359Z,2.75
2022-12-13T12:12:50.879Z,2.25
2022-12-13T12:15:26.854Z,1.92
2022-12-13T12:20:38.503Z,2.33
2022-12-13T12:23:14.170Z,2.63
2022-12-13T12:25:47.921Z,2.50
2022-12-13T12:28:28.805Z,2.35
2022-12-13T12:31:08.367Z,5.28
2022-12-13T12:33:44.090Z,5.07
2022-12-13T12:36:24.831Z,3.13
2022-12-13T12:39:14.851Z,3.28
2022-12-13T12:41:55.399Z,3.53
2022-12-13T12:44:38.980Z,2.50
2022-12-13T12:48:25.995Z,1.95
2022-12-13T12:50:33.065Z,1.40
2022-12-13T12:53:13.872Z,1.40
2022-12-13T12:55:51.959Z,2.40
2022-12-13T12:58:28.646Z,1.90
2022-12-13T13:01:11.369Z,1.60
2022-12-13T13:03:43.250Z,2.25
2022-12-13T13:06:15.400Z,2.88
2022-12-13T13:08:54.852Z,2.33
2022-12-13T13:11:28.072Z,2.25
2022-12-13T13:14:06.959Z,2.90
2022-12-13T13:16:38.991Z,2.33
2022-12-13T13:19:42.150Z,2.45
2022-12-13T13:22:30.463Z,3.33
2022-12-13T13:25:23.527Z,2.50
2022-12-13T13:27:53.079Z,1.73
2022-12-13T13:30:23.740Z,2.20
2022-12-13T13:32:54.158Z,1.83
2022-12-13T13:35:54.949Z,1.92
2022-12-13T13:38:54.325Z,2.00
2022-12-13T13:42:09.493Z,2.63
2022-12-13T13:45:03.908Z,3.25
2022-12-13T13:47:41.427Z,3.05
2022-12-13T13:51:01.940Z,6.88
2022-12-13T13:54:08.758Z,9.13
2022-12-13T13:57:15.388Z,4.78
2022-12-13T14:00:17.799Z,4.20
2022-12-13T14:03:41.176Z,5.75
2022-12-13T14:06:44.338Z,2.90
2022-12-13T14:09:40.838Z,2.60
2022-12-13T14:12:46.050Z,2.47
2022-12-13T14:15:56.917Z,2.28
2022-12-13T14:19:00.175Z,2.58
2022-12-13T14:21:37.443Z,2.00
2022-12-13T14:24:17.664Z,2.75
2022-12-13T14:27:09.650Z,1.58
2022-12-13T14:29:48.516Z,1.92
2022-12-13T14:32:30.758Z,2.88
2022-12-13T14:35:26.143Z,3.97
2022-12-13T14:37:58.424Z,2.25
2022-12-13T14:40:30.439Z,2.00
2022-12-13T14:42:59.660Z,2.60
2022-12-13T14:45:32.428Z,3.25
2022-12-13T14:48:06.333Z,3.60
2022-12-13T14:50:37.494Z,2.92
2022-12-13T14:53:07.123Z,3.22
2022-12-13T14:55:38.037Z,2.53
2022-12-13T14:58:19.402Z,2.78
2022-12-13T15:00:49.136Z,3.65
2022-12-13T15:03:26.199Z,3.40
2022-12-13T15:05:57.867Z,2.67
2022-12-13T15:08:27.139Z,2.22
2022-12-13T15:10:57.627Z,2.15
2022-12-13T15:13:31.446Z,2.30
2022-12-13T15:16:02.268Z,2.63
2022-12-13T15:18:50.521Z,2.78
2022-12-13T15:21:24.323Z,2.25
2022-12-13T15:23:59.797Z,1.75
2022-12-13T15:26:33.968Z,2.17
2022-12-13T15:29:10.269Z,2.83
2022-12-13T15:31:40.996Z,3.50
2022-12-13T15:34:37.507Z,4.13
2022-12-13T15:37:29.189Z,5.80
2022-12-13T15:40:02.116Z,8.98
2022-12-13T15:42:33.109Z,8.55
2022-12-13T15:45:05.785Z,7.25
2022-12-13T15:47:34.768Z,6.97
2022-12-13T15:50:07.156Z,7.07
2022-12-13T15:52:37.629Z,7.40
2022-12-13T15:55:28.511Z,8.52
2022-12-13T15:57:59.124Z,9.60
2022-12-13T16:00:31.771Z,10.77
2022-12-13T16:03:08.858Z,7.45
2022-12-13T16:05:49.565Z,6.60
2022-12-13T16:08:27.182Z,7.47
2022-12-13T16:10:56.828Z,7.10
2022-12-13T16:13:27.829Z,7.47
2022-12-13T16:16:00.362Z,5.57
2022-12-13T16:18:45.188Z,6.22
2022-12-13T16:21:15.362Z,5.68
2022-12-13T16:23:48.084Z,4.88
2022-12-13T16:26:23.901Z,6.18
2022-12-13T16:28:52.858Z,5.45
2022-12-13T16:31:23.320Z,6.78
2022-12-13T16:33:52.143Z,6.82
2022-12-13T16:36:22.213Z,6.35
2022-12-13T16:38:51.868Z,6.25
2022-12-13T16:41:22.363Z,5.80
2022-12-13T16:43:55.117Z,6.40
2022-12-13T16:47:12.940Z,6.45
2022-12-13T16:49:20.243Z,5.93
2022-12-13T16:51:50.677Z,4.95
2022-12-13T16:54:20.483Z,5.32
2022-12-13T16:56:49.997Z,4.53
2022-12-13T16:59:20.251Z,4.90
2022-12-13T17:01:49.218Z,4.70
2022-12-13T17:04:20.975Z,5.75
2022-12-13T17:06:54.797Z,6.65
2022-12-13T17:09:25.412Z,6.70
2022-12-13T17:11:54.277Z,6.72
2022-12-13T17:14:22.806Z,5.55
2022-12-13T17:16:51.919Z,5.78
2022-12-13T17:19:20.457Z,6.70
2022-12-13T17:21:51.292Z,6.38
2022-12-13T17:24:19.879Z,8.77
2022-12-13T17:26:55.018Z,9.32
2022-12-13T17:29:25.116Z,8.32
2022-12-13T17:31:53.855Z,8.77
2022-12-13T17:34:21.997Z,6.78
2022-12-13T17:36:51.676Z,9.77
2022-12-13T17:39:21.175Z,9.40
2022-12-13T17:41:54.504Z,8.48
2022-12-13T17:44:24.895Z,6.97
2022-12-13T17:46:54.649Z,5.22
2022-12-13T17:49:24.278Z,3.92
2022-12-13T17:51:54.778Z,5.07
2022-12-13T17:54:24.355Z,4.78
2022-12-13T17:56:53.444Z,4.72
2022-12-13T17:59:22.433Z,4.85
2022-12-13T18:01:51.398Z,6.22
2022-12-13T18:04:19.755Z,5.65
2022-12-13T18:06:48.095Z,8.85
2022-12-13T18:09:17.724Z,8.45
2022-12-13T18:11:45.935Z,6.35
2022-12-13T18:14:14.148Z,5.78
2022-12-13T18:16:43.707Z,4.90
2022-12-13T18:19:14.514Z,5.35
2022-12-13T18:21:43.968Z,5.28
2022-12-13T18:24:13.364Z,4.70
2022-12-13T18:26:43.084Z,4.70
2022-12-13T18:29:11.314Z,4.63
2022-12-13T18:31:40.188Z,4.60
2022-12-13T18:34:08.934Z,4.68
2022-12-13T18:36:37.395Z,5.18
2022-12-13T18:39:06.016Z,6.18
2022-12-13T18:41:34.325Z,6.20
2022-12-13T18:44:06.885Z,4.90
2022-12-13T18:46:37.158Z,9.20
2022-12-13T18:49:06.868Z,10.18
2022-12-13T18:51:35.725Z,11.40
2022-12-13T18:54:04.064Z,10.02
2022-12-13T18:56:34.156Z,10.25
2022-12-13T18:59:06.776Z,9.30
2022-12-13T19:01:36.217Z,8.90
2022-12-13T19:04:06.455Z,8.15
2022-12-13T19:06:34.865Z,8.82
2022-12-13T19:09:03.437Z,8.27
2022-12-13T19:11:32.326Z,8.98
2022-12-13T19:14:00.560Z,8.13
2022-12-13T19:16:30.361Z,7.65
2022-12-13T19:18:59.193Z,7.13
2022-12-13T19:21:27.814Z,7.00
2022-12-13T19:23:58.141Z,6.78
2022-12-13T19:26:27.684Z,6.32
2022-12-13T19:28:57.343Z,5.35
2022-12-13T19:31:30.880Z,5.45
2022-12-13T19:34:02.874Z,6.90
2022-12-13T19:36:33.471Z,6.22
2022-12-13T19:39:01.894Z,6.45
2022-12-13T19:41:32.565Z,5.43
2022-12-13T19:44:04.014Z,5.18
2022-12-13T19:46:32.309Z,6.30
2022-12-13T19:49:02.134Z,5.55
2022-12-13T19:51:35.873Z,4.85
2022-12-13T19:54:08.015Z,4.75
2022-12-13T19:56:37.673Z,4.10
2022-12-13T19:59:08.614Z,4.93
2022-12-13T20:01:37.348Z,4.55
2022-12-13T20:04:08.068Z,4.97
2022-12-13T20:06:36.516Z,4.10
2022-12-13T20:09:04.986Z,5.70
2022-12-13T20:11:33.348Z,5.22
2022-12-13T20:14:01.464Z,5.25
2022-12-13T20:16:30.050Z,5.55
2022-12-13T20:19:00.264Z,4.72
2022-12-13T20:21:30.720Z,4.57
2022-12-13T20:23:59.366Z,4.72
2022-12-13T20:26:29.834Z,4.82
2022-12-13T20:28:58.174Z,3.42
2022-12-13T20:31:29.486Z,3.75
2022-12-13T20:33:59.367Z,4.13
2022-12-13T20:36:32.655Z,4.22
2022-12-13T20:39:02.868Z,4.15
2022-12-13T20:41:34.007Z,4.03
2022-12-13T20:44:03.670Z,4.43
2022-12-13T20:46:32.544Z,3.42
2022-12-13T20:49:04.918Z,3.15
2022-12-13T20:51:36.147Z,3.55
2022-12-13T20:54:05.468Z,3.38
2022-12-13T20:56:36.247Z,5.00
2022-12-13T20:59:05.806Z,3.75
2022-12-13T21:01:41.104Z,3.92
2022-12-13T21:04:10.687Z,3.92
2022-12-13T21:06:42.257Z,4.65
2022-12-13T21:09:11.868Z,7.00
2022-12-13T21:11:43.183Z,4.38
2022-12-13T21:14:20.790Z,5.85
2022-12-13T21:16:53.216Z,4.93
2022-12-13T21:19:23.572Z,4.00
2022-12-13T21:21:54.343Z,3.38
2022-12-13T21:24:24.135Z,4.10
2022-12-13T21:26:52.616Z,3.90
2022-12-13T21:29:20.947Z,4.32
2022-12-13T21:31:53.664Z,4.03
2022-12-13T21:34:22.525Z,4.25
2022-12-13T21:36:53.132Z,5.05
2022-12-13T21:39:25.142Z,4.30
2022-12-13T21:41:55.645Z,4.28
2022-12-13T21:44:26.924Z,4.32
2022-12-13T21:47:11.678Z,3.53
2022-12-13T21:49:40.220Z,3.53
2022-12-13T21:52:09.650Z,3.78
2022-12-13T21:54:38.332Z,3.03
2022-12-13T21:57:25.640Z,2.90
2022-12-13T21:59:53.751Z,3.30
2022-12-13T22:02:24.327Z,3.45
2022-12-13T22:04:53.873Z,3.80
2022-12-13T22:07:25.436Z,3.28
2022-12-13T22:09:54.584Z,3.53
2022-12-13T22:12:24.278Z,2.90
2022-12-13T22:14:52.858Z,2.90
2022-12-13T22:17:32.752Z,2.70
2022-12-13T22:20:03.912Z,3.08
2022-12-13T22:22:33.560Z,2.85
2022-12-13T22:25:02.593Z,2.63
2022-12-13T22:27:30.644Z,2.90
2022-12-13T22:30:01.072Z,2.88
2022-12-13T22:32:31.716Z,2.15
2022-12-13T22:34:59.847Z,2.97
2022-12-13T22:37:28.127Z,2.75
2022-12-13T22:39:57.827Z,2.97
2022-12-13T22:42:26.241Z,3.20
2022-12-13T22:44:54.068Z,2.60
2022-12-13T22:47:21.990Z,3.22
2022-12-13T22:49:49.832Z,2.53
2022-12-13T22:52:17.997Z,2.40
2022-12-13T22:54:45.962Z,2.20
2022-12-13T22:57:15.494Z,2.95
2022-12-13T22:59:43.401Z,2.85
2022-12-13T23:02:11.336Z,2.83
2022-12-13T23:04:39.460Z,2.47
2022-12-13T23:07:07.417Z,2.88
2022-12-13T23:09:35.529Z,2.00
2022-12-13T23:12:21.660Z,2.08
2022-12-13T23:14:52.268Z,2.90
2022-12-13T23:17:20.368Z,2.30
2022-12-13T23:19:48.818Z,2.70
2022-12-13T23:22:30.848Z,2.60
2022-12-13T23:24:59.326Z,2.40
2022-12-13T23:27:27.109Z,2.55
2022-12-13T23:29:56.544Z,2.70
2022-12-13T23:32:24.477Z,1.98
2022-12-13T23:34:52.538Z,2.45
2022-12-13T23:37:21.784Z,2.40
2022-12-13T23:39:49.518Z,2.70
2022-12-13T23:42:17.682Z,2.25
2022-12-13T23:44:45.880Z,2.50
2022-12-13T23:47:15.341Z,2.30
2022-12-13T23:49:43.493Z,2.80
2022-12-13T23:52:11.268Z,2.17
2022-12-13T23:54:40.193Z,2.38
2022-12-13T23:57:08.321Z,2.40
2022-12-13T23:59:37.363Z,2.55
